createdAt,value
2017-11-24T00:02:26.397Z,2.60
2017-11-24T00:04:54.731Z,2.60
2017-11-24T00:07:23.060Z,2.30
2017-11-24T00:09:51.473Z,2.77
2017-11-24T00:12:19.804Z,2.33
2017-11-24T00:14:48.122Z,2.40
2017-11-24T00:17:16.445Z,2.70
2017-11-24T00:19:44.775Z,2.47
2017-11-24T00:22:15.885Z,2.33
2017-11-24T00:24:44.225Z,2.73
2017-11-24T00:27:12.714Z,3.30
2017-11-24T00:29:41.025Z,3.07
2017-11-24T00:32:09.557Z,3.00
2017-11-24T00:34:37.927Z,3.40
2017-11-24T00:37:06.243Z,3.20
2017-11-24T00:39:34.583Z,3.67
2017-11-24T00:42:02.978Z,3.20
2017-11-24T00:44:31.409Z,2.90
2017-11-24T00:46:59.759Z,3.50
2017-11-24T00:49:28.379Z,2.43
2017-11-24T00:51:56.697Z,2.43
2017-11-24T00:54:25.021Z,2.50
2017-11-24T00:56:53.378Z,2.97
2017-11-24T00:59:21.681Z,2.60
2017-11-24T01:01:50.045Z,2.80
2017-11-24T01:04:18.362Z,3.00
2017-11-24T01:06:46.714Z,2.47
2017-11-24T01:09:15.029Z,3.27
2017-11-24T01:11:43.339Z,2.10
2017-11-24T01:14:11.659Z,2.67
2017-11-24T01:16:39.981Z,2.50
2017-11-24T01:19:08.320Z,2.30
2017-11-24T01:21:36.771Z,3.07
2017-11-24T01:24:05.119Z,2.73
2017-11-24T01:26:33.492Z,2.33
2017-11-24T01:29:01.832Z,2.03
2017-11-24T01:31:30.174Z,1.93
2017-11-24T01:33:58.628Z,2.10
2017-11-24T01:36:26.946Z,2.53
2017-11-24T01:38:55.318Z,2.60
2017-11-24T01:41:23.646Z,2.40
2017-11-24T01:43:51.965Z,2.47
2017-11-24T01:46:20.294Z,1.50
2017-11-24T01:48:48.605Z,2.50
2017-11-24T01:51:16.940Z,2.00
2017-11-24T01:53:45.282Z,2.47
2017-11-24T01:56:13.648Z,2.60
2017-11-24T01:58:41.963Z,2.20
2017-11-24T02:01:10.313Z,2.30
2017-11-24T02:03:38.675Z,2.40
2017-11-24T02:06:07.034Z,2.70
2017-11-24T02:08:35.412Z,2.20
2017-11-24T02:11:03.737Z,2.40
2017-11-24T02:13:32.115Z,3.10
2017-11-24T02:16:00.461Z,2.33
2017-11-24T02:18:28.900Z,2.37
2017-11-24T02:20:57.264Z,2.77
2017-11-24T02:23:25.605Z,2.57
2017-11-24T02:25:53.945Z,2.73
2017-11-24T02:28:22.527Z,2.27
2017-11-24T02:30:50.885Z,2.20
2017-11-24T02:33:19.214Z,2.80
2017-11-24T02:35:47.565Z,1.80
2017-11-24T02:38:15.968Z,2.60
2017-11-24T02:40:44.355Z,2.27
2017-11-24T02:43:12.679Z,2.47
2017-11-24T02:45:41.002Z,1.97
2017-11-24T02:48:09.373Z,2.90
2017-11-24T02:50:37.758Z,2.20
2017-11-24T02:53:06.110Z,2.80
2017-11-24T02:55:34.413Z,2.70
2017-11-24T02:58:02.730Z,2.10
2017-11-24T03:00:31.047Z,1.90
2017-11-24T03:02:59.394Z,2.73
2017-11-24T03:05:27.697Z,1.80
2017-11-24T03:07:56.046Z,2.30
2017-11-24T03:10:24.361Z,1.97
2017-11-24T03:12:52.688Z,1.97
2017-11-24T03:15:21.003Z,2.30
2017-11-24T03:17:49.413Z,2.40
2017-11-24T03:20:17.727Z,1.90
2017-11-24T03:22:46.055Z,2.43
2017-11-24T03:25:14.390Z,1.93
2017-11-24T03:27:42.773Z,1.70
2017-11-24T03:30:11.102Z,1.80
2017-11-24T03:32:39.441Z,1.67
2017-11-24T03:35:07.833Z,2.50
2017-11-24T03:37:36.292Z,1.17
2017-11-24T03:40:04.602Z,1.73
2017-11-24T03:42:32.988Z,1.90
2017-11-24T03:45:01.325Z,1.90
2017-11-24T03:47:29.687Z,1.60
2017-11-24T03:49:57.985Z,2.30
2017-11-24T03:52:27.258Z,1.80
2017-11-24T03:54:55.593Z,2.00
2017-11-24T03:57:23.918Z,1.73
2017-11-24T03:59:52.229Z,1.70
2017-11-24T04:02:20.570Z,1.97
2017-11-24T04:04:48.849Z,1.80
2017-11-24T04:07:17.226Z,1.50
2017-11-24T04:09:45.566Z,1.70
2017-11-24T04:12:13.889Z,2.30
2017-11-24T04:14:42.229Z,2.27
2017-11-24T04:17:10.565Z,1.90
2017-11-24T04:19:39.056Z,2.07
2017-11-24T04:22:07.377Z,2.40
2017-11-24T04:24:35.735Z,1.70
2017-11-24T04:27:04.037Z,1.90
2017-11-24T04:29:32.359Z,1.87
2017-11-24T04:32:00.705Z,1.87
2017-11-24T04:34:29.054Z,2.03
2017-11-24T04:36:57.358Z,2.00
2017-11-24T04:39:25.731Z,2.37
2017-11-24T04:41:54.063Z,2.10
2017-11-24T04:44:22.381Z,2.40
2017-11-24T04:46:50.719Z,2.97
2017-11-24T04:49:19.059Z,2.07
2017-11-24T04:51:47.400Z,2.43
2017-11-24T04:54:15.742Z,2.00
2017-11-24T04:56:44.063Z,1.90
2017-11-24T04:59:12.364Z,1.80
2017-11-24T05:01:40.702Z,2.17
2017-11-24T05:04:09.061Z,2.47
2017-11-24T05:06:37.425Z,1.63
2017-11-24T05:09:05.715Z,2.20
2017-11-24T05:11:34.026Z,2.07
2017-11-24T05:14:02.346Z,2.50
2017-11-24T05:16:30.666Z,2.07
2017-11-24T05:18:58.974Z,2.13
2017-11-24T05:21:27.287Z,1.83
2017-11-24T05:23:55.609Z,2.57
2017-11-24T05:26:23.962Z,2.13
2017-11-24T05:28:52.276Z,2.60
2017-11-24T05:31:20.588Z,2.93
2017-11-24T05:33:49.008Z,2.50
2017-11-24T05:36:17.317Z,3.00
2017-11-24T05:38:45.621Z,2.80
2017-11-24T05:41:14.005Z,2.50
2017-11-24T05:43:42.316Z,2.37
2017-11-24T05:46:10.670Z,2.40
2017-11-24T05:48:38.998Z,2.20
2017-11-24T05:51:07.333Z,3.17
2017-11-24T05:53:35.860Z,2.20
2017-11-24T05:56:04.335Z,2.60
2017-11-24T05:58:32.642Z,2.80
2017-11-24T06:01:01.038Z,2.73
2017-11-24T06:03:29.498Z,2.97
2017-11-24T06:05:57.833Z,2.93
2017-11-24T06:08:26.250Z,2.30
2017-11-24T06:10:54.636Z,2.63
2017-11-24T06:13:22.964Z,3.17
2017-11-24T06:15:51.333Z,2.80
2017-11-24T06:18:19.710Z,2.10
2017-11-24T06:20:48.025Z,2.23
2017-11-24T06:23:16.354Z,1.93
2017-11-24T06:25:44.691Z,1.90
2017-11-24T06:28:13.069Z,2.43
2017-11-24T06:30:41.419Z,2.50
2017-11-24T06:33:09.753Z,2.53
2017-11-24T06:35:38.122Z,2.80
2017-11-24T06:38:06.408Z,3.27
2017-11-24T06:40:34.753Z,2.90
2017-11-24T06:43:03.107Z,2.60
2017-11-24T06:45:31.456Z,3.07
2017-11-24T06:48:00.609Z,2.73
2017-11-24T06:50:29.007Z,2.23
2017-11-24T06:52:57.369Z,2.60
2017-11-24T06:55:25.701Z,1.60
2017-11-24T06:57:54.032Z,1.87
2017-11-24T07:00:22.447Z,2.67
2017-11-24T07:02:57.552Z,1.90
2017-11-24T07:05:26.786Z,1.90
2017-11-24T07:07:55.202Z,2.27
2017-11-24T07:10:23.646Z,2.83
2017-11-24T07:12:52.095Z,2.00
2017-11-24T07:15:20.420Z,1.97
2017-11-24T07:17:48.977Z,2.07
2017-11-24T07:20:17.439Z,2.57
2017-11-24T07:22:45.859Z,2.47
2017-11-24T07:25:14.327Z,2.00
2017-11-24T07:27:44.077Z,1.93
2017-11-24T07:30:12.414Z,2.37
2017-11-24T07:32:40.762Z,2.20
2017-11-24T07:35:09.191Z,3.60
2017-11-24T07:37:37.523Z,2.30
2017-11-24T07:40:05.902Z,2.80
2017-11-24T07:42:34.212Z,2.50
2017-11-24T07:45:02.789Z,2.30
2017-11-24T07:47:31.418Z,2.73
2017-11-24T07:50:00.655Z,2.83
2017-11-24T07:52:29.085Z,2.27
2017-11-24T07:54:57.537Z,2.37
2017-11-24T07:57:25.876Z,2.67
2017-11-24T07:59:54.275Z,2.47
2017-11-24T08:02:22.594Z,2.87
2017-11-24T08:04:51.027Z,2.40
2017-11-24T08:07:19.456Z,2.30
2017-11-24T08:09:48.039Z,2.63
2017-11-24T08:12:16.684Z,2.50
2017-11-24T08:14:47.010Z,2.30
2017-11-24T08:17:15.369Z,1.80
2017-11-24T08:19:44.083Z,2.37
2017-11-24T08:22:13.910Z,2.13
2017-11-24T08:24:43.044Z,2.43
2017-11-24T08:27:12.330Z,2.63
2017-11-24T08:29:40.705Z,2.33
2017-11-24T08:32:11.382Z,2.70
2017-11-24T08:34:39.790Z,3.00
2017-11-24T08:37:08.228Z,2.30
2017-11-24T08:39:36.963Z,2.60
2017-11-24T08:42:05.323Z,2.57
2017-11-24T08:44:35.578Z,2.27
2017-11-24T08:47:09.823Z,2.60
2017-11-24T08:49:43.938Z,3.40
2017-11-24T08:52:12.272Z,2.17
2017-11-24T08:54:41.021Z,2.43
2017-11-24T08:57:11.640Z,2.53
2017-11-24T08:59:41.049Z,2.27
2017-11-24T09:02:16.112Z,2.53
2017-11-24T09:04:44.636Z,2.30
2017-11-24T09:07:15.928Z,2.40
2017-11-24T09:09:44.291Z,2.37
2017-11-24T09:12:12.759Z,2.20
2017-11-24T09:14:41.742Z,1.87
2017-11-24T09:17:10.251Z,2.10
2017-11-24T09:19:38.769Z,2.30
2017-11-24T09:22:07.642Z,2.20
2017-11-24T09:24:36.168Z,2.10
2017-11-24T09:27:04.539Z,2.47
2017-11-24T09:29:32.894Z,2.30
2017-11-24T09:32:01.305Z,2.60
2017-11-24T09:34:29.802Z,1.97
2017-11-24T09:36:58.402Z,2.33
2017-11-24T09:39:26.823Z,2.07
2017-11-24T09:41:55.804Z,2.00
2017-11-24T09:44:24.331Z,2.50
2017-11-24T09:46:53.019Z,1.93
2017-11-24T09:49:21.819Z,1.97
2017-11-24T09:51:50.972Z,1.80
2017-11-24T09:54:19.601Z,2.33
2017-11-24T09:56:47.966Z,2.10
2017-11-24T09:59:16.572Z,2.93
2017-11-24T10:01:45.039Z,2.00
2017-11-24T10:04:13.522Z,2.53
2017-11-24T10:06:41.915Z,2.60
2017-11-24T10:09:10.330Z,2.50
2017-11-24T10:11:38.852Z,2.57
2017-11-24T10:14:07.227Z,2.20
2017-11-24T10:16:35.754Z,1.67
2017-11-24T10:19:04.358Z,2.50
2017-11-24T10:21:38.526Z,2.70
2017-11-24T10:24:06.970Z,1.20
2017-11-24T10:26:35.593Z,2.20
2017-11-24T10:29:04.170Z,2.10
2017-11-24T10:31:33.752Z,3.30
2017-11-24T10:34:02.235Z,2.50
2017-11-24T10:36:30.738Z,2.10
2017-11-24T10:38:59.123Z,2.53
2017-11-24T10:41:27.512Z,2.40
2017-11-24T10:43:56.267Z,1.90
2017-11-24T10:46:24.781Z,1.80
2017-11-24T10:48:53.425Z,2.07
2017-11-24T10:51:22.088Z,1.80
2017-11-24T10:53:50.616Z,2.00
2017-11-24T10:56:19.087Z,1.90
2017-11-24T10:58:47.643Z,1.93
2017-11-24T11:01:15.985Z,2.10
2017-11-24T11:06:18.843Z,3.17
2017-11-24T11:08:47.589Z,2.00
2017-11-24T11:11:16.053Z,2.07
2017-11-24T11:13:47.398Z,2.17
2017-11-24T11:16:18.766Z,1.57
2017-11-24T11:18:47.255Z,1.67
2017-11-24T11:21:16.773Z,2.27
2017-11-24T11:23:45.321Z,2.17
2017-11-24T11:26:16.078Z,2.60
2017-11-24T11:28:44.888Z,2.10
2017-11-24T11:31:13.268Z,2.47
2017-11-24T11:33:41.772Z,1.83
2017-11-24T11:36:10.259Z,2.00
2017-11-24T11:38:38.851Z,2.53
2017-11-24T11:41:07.296Z,2.93
2017-11-24T11:43:35.738Z,2.70
2017-11-24T11:46:04.065Z,2.30
2017-11-24T11:48:32.411Z,2.53
2017-11-24T11:51:00.774Z,2.93
2017-11-24T11:53:29.606Z,2.90
2017-11-24T11:55:58.195Z,2.27
2017-11-24T11:58:26.687Z,3.30
2017-11-24T12:00:55.469Z,3.00
2017-11-24T12:03:24.303Z,3.87
2017-11-24T12:05:52.896Z,3.43
2017-11-24T12:08:21.496Z,3.40
2017-11-24T12:10:49.995Z,2.23
2017-11-24T12:13:18.559Z,3.00
2017-11-24T12:15:46.950Z,2.53
2017-11-24T12:18:15.327Z,3.70
2017-11-24T12:20:43.936Z,1.80
2017-11-24T12:23:12.436Z,3.40
2017-11-24T12:25:40.835Z,4.07
2017-11-24T12:28:09.345Z,3.20
2017-11-24T12:30:56.496Z,5.23
2017-11-24T12:33:24.879Z,7.90
2017-11-24T12:35:53.939Z,2.53
2017-11-24T12:38:22.517Z,5.00
2017-11-24T12:40:50.935Z,9.20
2017-11-24T12:43:19.806Z,12.03
2017-11-24T12:45:48.169Z,4.30
2017-11-24T12:48:16.806Z,4.43
2017-11-24T12:50:45.402Z,4.13
2017-11-24T12:53:14.532Z,3.50
2017-11-24T12:55:42.927Z,2.33
2017-11-24T12:58:11.337Z,2.93
2017-11-24T13:00:39.925Z,3.93
2017-11-24T13:03:08.268Z,4.07
2017-11-24T13:05:36.731Z,2.10
2017-11-24T13:08:05.333Z,2.40
2017-11-24T13:10:33.939Z,3.40
2017-11-24T13:13:02.841Z,3.27
2017-11-24T13:15:31.277Z,3.30
2017-11-24T13:17:59.683Z,2.40
2017-11-24T13:20:28.321Z,3.90
2017-11-24T13:22:56.704Z,2.77
2017-11-24T13:25:25.163Z,2.47
2017-11-24T13:27:53.677Z,2.90
2017-11-24T13:30:22.113Z,2.80
2017-11-24T13:32:50.605Z,2.63
2017-11-24T13:35:18.979Z,3.00
2017-11-24T13:37:48.186Z,3.17
2017-11-24T13:40:16.826Z,3.07
2017-11-24T13:42:45.275Z,2.77
2017-11-24T13:45:13.701Z,2.77
2017-11-24T13:47:42.375Z,2.33
2017-11-24T13:50:11.330Z,2.77
2017-11-24T13:52:40.012Z,1.93
2017-11-24T13:55:08.698Z,2.50
2017-11-24T13:57:37.037Z,1.80
2017-11-24T14:00:05.695Z,1.90
2017-11-24T14:02:34.050Z,2.00
2017-11-24T14:05:02.883Z,2.27
2017-11-24T14:07:31.325Z,2.53
2017-11-24T14:09:59.847Z,1.97
2017-11-24T14:12:28.490Z,2.27
2017-11-24T14:14:56.934Z,2.30
2017-11-24T14:17:25.523Z,3.23
2017-11-24T14:19:54.100Z,2.93
2017-11-24T14:22:22.623Z,2.80
2017-11-24T14:24:51.007Z,2.10
2017-11-24T14:27:19.483Z,2.30
2017-11-24T14:29:47.859Z,2.37
2017-11-24T14:32:16.261Z,2.97
2017-11-24T14:34:44.868Z,2.10
2017-11-24T14:37:13.304Z,1.90
2017-11-24T14:39:41.730Z,2.70
2017-11-24T14:42:10.144Z,3.10
2017-11-24T14:44:38.674Z,2.00
2017-11-24T14:47:07.075Z,3.03
2017-11-24T14:49:35.690Z,2.17
2017-11-24T14:52:04.715Z,2.70
2017-11-24T14:54:33.092Z,2.00
2017-11-24T14:57:01.490Z,2.23
2017-11-24T14:59:29.893Z,2.43
2017-11-24T15:01:58.206Z,2.33
2017-11-24T15:04:26.660Z,3.13
2017-11-24T15:06:55.176Z,2.30
2017-11-24T15:09:23.802Z,2.23
2017-11-24T15:11:52.429Z,2.80
2017-11-24T15:14:21.160Z,3.07
2017-11-24T15:19:22.625Z,2.00
2017-11-24T15:21:52.555Z,2.47
2017-11-24T15:24:20.979Z,2.90
2017-11-24T15:26:51.248Z,3.00
2017-11-24T15:29:18.743Z,2.97
2017-11-24T15:31:47.171Z,2.30
2017-11-24T15:34:15.666Z,2.47
2017-11-24T15:36:44.079Z,3.37
2017-11-24T15:39:12.507Z,2.70
2017-11-24T15:41:40.980Z,4.30
2017-11-24T15:44:09.721Z,3.80
2017-11-24T15:46:38.913Z,3.77
2017-11-24T15:49:24.972Z,3.67
2017-11-24T15:51:53.548Z,3.00
2017-11-24T15:54:22.191Z,3.50
2017-11-24T15:56:50.746Z,3.17
2017-11-24T15:59:19.222Z,3.53
2017-11-24T16:01:47.801Z,3.10
2017-11-24T16:04:20.567Z,5.37
2017-11-24T16:06:49.051Z,3.97
2017-11-24T16:09:17.776Z,3.40
2017-11-24T16:11:46.805Z,3.13
2017-11-24T16:14:15.453Z,3.40
2017-11-24T16:16:44.897Z,3.30
2017-11-24T16:19:13.606Z,3.20
2017-11-24T16:21:42.910Z,3.40
2017-11-24T16:24:11.528Z,4.30
2017-11-24T16:26:39.967Z,3.40
2017-11-24T16:29:08.528Z,3.83
2017-11-24T16:31:37.265Z,3.80
2017-11-24T16:34:06.162Z,3.47
2017-11-24T16:36:34.690Z,3.97
2017-11-24T16:39:03.697Z,3.83
2017-11-24T16:41:32.415Z,3.93
2017-11-24T16:44:01.241Z,3.83
2017-11-24T16:46:36.278Z,3.27
2017-11-24T16:49:06.747Z,3.03
2017-11-24T16:51:35.310Z,2.83
2017-11-24T16:54:04.379Z,3.07
2017-11-24T16:56:33.758Z,3.43
2017-11-24T16:59:02.266Z,3.27
2017-11-24T17:01:31.764Z,2.93
2017-11-24T17:04:17.170Z,3.57
2017-11-24T17:06:48.507Z,3.00
2017-11-24T17:09:17.105Z,2.73
2017-11-24T17:11:45.721Z,3.23
2017-11-24T17:14:14.309Z,3.17
2017-11-24T17:16:42.803Z,3.20
2017-11-24T17:19:11.434Z,2.70
2017-11-24T17:21:39.948Z,3.33
2017-11-24T17:24:09.146Z,4.30
2017-11-24T17:26:37.851Z,3.53
2017-11-24T17:29:06.337Z,3.30
2017-11-24T17:31:35.256Z,2.97
2017-11-24T17:34:03.739Z,3.57
2017-11-24T17:36:32.580Z,3.30
2017-11-24T17:39:01.014Z,3.77
2017-11-24T17:41:29.663Z,3.30
2017-11-24T17:43:58.599Z,3.00
2017-11-24T17:46:27.030Z,3.30
2017-11-24T17:48:55.426Z,3.37
2017-11-24T17:51:24.410Z,4.30
2017-11-24T17:53:52.826Z,3.43
2017-11-24T17:56:21.228Z,4.43
2017-11-24T17:58:49.691Z,3.60
2017-11-24T18:01:20.933Z,3.40
2017-11-24T18:03:50.259Z,4.33
2017-11-24T18:06:18.788Z,3.50
2017-11-24T18:08:47.272Z,4.50
2017-11-24T18:11:16.078Z,3.63
2017-11-24T18:13:44.477Z,4.10
2017-11-24T18:16:12.954Z,3.13
2017-11-24T18:18:41.540Z,3.40
2017-11-24T18:21:09.946Z,4.13
2017-11-24T18:23:38.343Z,3.00
2017-11-24T18:26:06.991Z,3.90
2017-11-24T18:28:35.423Z,3.63
2017-11-24T18:31:04.158Z,3.57
2017-11-24T18:33:33.093Z,4.10
2017-11-24T18:36:01.724Z,4.20
2017-11-24T18:38:30.232Z,3.47
2017-11-24T18:40:58.635Z,5.00
2017-11-24T18:43:27.223Z,4.20
2017-11-24T19:09:55.997Z,4.90
2017-11-24T19:12:24.375Z,4.80
2017-11-24T19:14:52.821Z,5.87
2017-11-24T19:17:21.276Z,6.03
2017-11-24T19:19:49.683Z,4.60
2017-11-24T19:22:20.423Z,5.20
2017-11-24T19:24:49.186Z,5.60
2017-11-24T19:27:18.307Z,4.20
2017-11-24T19:32:19.828Z,5.33
2017-11-24T19:34:48.566Z,7.40
2017-11-24T19:37:16.961Z,9.60
2017-11-24T19:39:45.507Z,7.67
2017-11-24T19:42:13.941Z,5.87
2017-11-24T19:44:42.590Z,5.60
2017-11-24T19:47:11.819Z,6.10
2017-11-24T19:52:15.013Z,6.27
2017-11-24T19:54:44.207Z,6.70
2017-11-24T20:04:57.747Z,7.77
2017-11-24T20:07:28.051Z,8.30
2017-11-24T20:12:33.283Z,9.93
2017-11-24T20:17:38.880Z,7.97
2017-11-24T20:20:07.354Z,8.20
2017-11-24T20:22:35.812Z,7.93
2017-11-24T20:25:05.302Z,8.00
2017-11-24T20:27:33.629Z,6.20
2017-11-24T20:30:02.055Z,10.40
2017-11-24T20:32:31.188Z,10.63
2017-11-24T20:34:59.579Z,13.63
2017-11-24T20:37:29.600Z,11.43
2017-11-24T20:42:40.106Z,6.80
2017-11-24T20:45:08.547Z,8.40
2017-11-24T20:47:37.160Z,8.37
2017-11-24T20:50:05.559Z,8.97
2017-11-24T20:52:34.169Z,7.77
2017-11-24T20:57:35.482Z,7.97
2017-11-24T21:02:36.896Z,7.53
2017-11-24T21:05:05.363Z,6.60
2017-11-24T21:07:33.787Z,6.80
2017-11-24T21:10:07.294Z,6.50
2017-11-24T21:12:36.350Z,6.80
2017-11-24T21:15:05.716Z,6.53
2017-11-24T21:17:47.521Z,6.47
2017-11-24T21:20:16.367Z,6.07
2017-11-24T21:22:50.919Z,6.23
2017-11-24T21:25:19.333Z,6.43
2017-11-24T21:27:56.680Z,6.63
2017-11-24T21:30:26.123Z,7.37
2017-11-24T21:32:55.681Z,6.70
2017-11-24T21:38:28.588Z,7.07
2017-11-24T21:41:03.853Z,6.63
2017-11-24T21:57:17.104Z,6.80
2017-11-24T21:59:45.464Z,6.80
2017-11-24T22:04:46.376Z,6.73
2017-11-24T22:07:14.803Z,6.43
2017-11-24T22:09:43.520Z,6.90
2017-11-24T22:12:11.988Z,6.63
2017-11-24T22:14:40.788Z,7.63
2017-11-24T22:17:09.331Z,7.33
2017-11-24T22:19:37.758Z,7.67
2017-11-24T22:24:38.802Z,7.67
2017-11-24T22:27:07.341Z,8.07
2017-11-24T22:29:35.764Z,8.47
2017-11-24T22:32:04.215Z,7.13
2017-11-24T22:34:32.603Z,7.87
2017-11-24T22:37:00.953Z,7.10
2017-11-24T22:39:29.287Z,7.43
2017-11-24T22:41:57.634Z,7.30
2017-11-24T22:44:31.208Z,6.27
2017-11-24T22:47:01.947Z,7.07
2017-11-24T22:49:34.368Z,7.40
2017-11-24T22:52:02.702Z,6.53
2017-11-24T22:54:31.455Z,7.40
2017-11-24T22:56:59.899Z,6.27
2017-11-24T23:02:13.130Z,7.60
2017-11-24T23:04:43.320Z,7.17
2017-11-24T23:07:12.512Z,6.77
2017-11-24T23:09:40.979Z,5.77
2017-11-24T23:12:11.413Z,6.77
2017-11-24T23:14:39.798Z,5.90
2017-11-24T23:17:08.203Z,6.23
2017-11-24T23:19:38.417Z,5.70
2017-11-24T23:24:46.421Z,4.80
2017-11-24T23:27:16.267Z,6.50
2017-11-24T23:29:49.565Z,6.40
2017-11-24T23:32:26.271Z,6.63
2017-11-24T23:35:02.187Z,6.00
2017-11-24T23:37:30.802Z,6.37
2017-11-24T23:40:02.824Z,6.10
2017-11-24T23:42:34.428Z,6.30
2017-11-24T23:45:02.881Z,5.77
2017-11-24T23:47:31.567Z,5.97
2017-11-24T23:50:00.275Z,6.83
2017-11-24T23:52:30.315Z,5.50
2017-11-24T23:54:58.636Z,6.30
2017-11-24T23:57:27.033Z,6.27
